sensor_id;sensor_type;location;lat;lon;timestamp;P1;durP1;ratioP1;P2;durP2;ratioP2
35644;SDS011;21764;52.042;6.830;2023-04-12T00:03:22;19.40;;;3.85;;
35644;SDS011;21764;52.042;6.830;2023-04-12T00:08:24;18.45;;;4.30;;
35644;SDS011;21764;52.042;6.830;2023-04-12T00:13:32;19.35;;;4.30;;
35644;SDS011;21764;52.042;6.830;2023-04-12T00:18:33;14.50;;;3.60;;
35644;SDS011;21764;52.042;6.830;2023-04-12T00:23:33;17.05;;;3.83;;
35644;SDS011;21764;52.042;6.830;2023-04-12T00:28:36;18.98;;;4.10;;
35644;SDS011;21764;52.042;6.830;2023-04-12T00:33:37;21.50;;;3.75;;
35644;SDS011;21764;52.042;6.830;2023-04-12T00:38:38;13.48;;;3.78;;
35644;SDS011;21764;52.042;6.830;2023-04-12T00:43:39;16.15;;;3.40;;
35644;SDS011;21764;52.042;6.830;2023-04-12T00:48:40;20.95;;;4.20;;
35644;SDS011;21764;52.042;6.830;2023-04-12T00:53:41;16.15;;;4.90;;
35644;SDS011;21764;52.042;6.830;2023-04-12T00:58:42;21.88;;;4.10;;
35644;SDS011;21764;52.042;6.830;2023-04-12T01:03:43;14.30;;;2.80;;
35644;SDS011;21764;52.042;6.830;2023-04-12T01:19:28;16.05;;;3.50;;
35644;SDS011;21764;52.042;6.830;2023-04-12T01:30:05;14.38;;;3.38;;
35644;SDS011;21764;52.042;6.830;2023-04-12T01:35:07;12.50;;;3.67;;
35644;SDS011;21764;52.042;6.830;2023-04-12T01:40:10;8.65;;;2.70;;
35644;SDS011;21764;52.042;6.830;2023-04-12T01:45:12;13.20;;;2.65;;
35644;SDS011;21764;52.042;6.830;2023-04-12T01:50:20;15.90;;;2.55;;
35644;SDS011;21764;52.042;6.830;2023-04-12T01:55:23;12.90;;;3.45;;
35644;SDS011;21764;52.042;6.830;2023-04-12T02:00:27;6.97;;;2.70;;
35644;SDS011;21764;52.042;6.830;2023-04-12T02:05:30;11.80;;;3.03;;
35644;SDS011;21764;52.042;6.830;2023-04-12T02:10:32;11.20;;;2.67;;
35644;SDS011;21764;52.042;6.830;2023-04-12T02:15:35;8.80;;;2.50;;
35644;SDS011;21764;52.042;6.830;2023-04-12T02:20:36;12.10;;;2.13;;
35644;SDS011;21764;52.042;6.830;2023-04-12T02:25:37;11.40;;;2.08;;
35644;SDS011;21764;52.042;6.830;2023-04-12T02:30:40;9.63;;;2.38;;
35644;SDS011;21764;52.042;6.830;2023-04-12T02:35:40;9.45;;;2.90;;
35644;SDS011;21764;52.042;6.830;2023-04-12T02:40:42;9.02;;;2.75;;
35644;SDS011;21764;52.042;6.830;2023-04-12T02:45:42;17.67;;;2.95;;
35644;SDS011;21764;52.042;6.830;2023-04-12T02:50:43;15.20;;;3.42;;
35644;SDS011;21764;52.042;6.830;2023-04-12T02:55:43;19.55;;;3.75;;
35644;SDS011;21764;52.042;6.830;2023-04-12T03:00:44;14.98;;;3.28;;
35644;SDS011;21764;52.042;6.830;2023-04-12T03:05:45;15.57;;;3.42;;
35644;SDS011;21764;52.042;6.830;2023-04-12T03:10:47;14.73;;;3.55;;
35644;SDS011;21764;52.042;6.830;2023-04-12T03:15:47;10.38;;;3.08;;
35644;SDS011;21764;52.042;6.830;2023-04-12T03:20:51;12.87;;;3.17;;
35644;SDS011;21764;52.042;6.830;2023-04-12T03:25:52;10.90;;;3.33;;
35644;SDS011;21764;52.042;6.830;2023-04-12T03:30:53;14.27;;;3.10;;
35644;SDS011;21764;52.042;6.830;2023-04-12T03:35:53;9.80;;;2.40;;
35644;SDS011;21764;52.042;6.830;2023-04-12T03:40:54;10.45;;;3.08;;
35644;SDS011;21764;52.042;6.830;2023-04-12T03:45:55;9.13;;;2.70;;
35644;SDS011;21764;52.042;6.830;2023-04-12T03:50:55;11.50;;;2.30;;
35644;SDS011;21764;52.042;6.830;2023-04-12T03:55:58;12.10;;;3.13;;
35644;SDS011;21764;52.042;6.830;2023-04-12T04:01:01;5.25;;;1.70;;
35644;SDS011;21764;52.042;6.830;2023-04-12T04:06:05;10.70;;;3.17;;
35644;SDS011;21764;52.042;6.830;2023-04-12T04:11:07;7.15;;;2.13;;
35644;SDS011;21764;52.042;6.830;2023-04-12T04:16:07;5.30;;;2.40;;
35644;SDS011;21764;52.042;6.830;2023-04-12T04:21:09;8.95;;;2.15;;
35644;SDS011;21764;52.042;6.830;2023-04-12T04:26:10;6.15;;;1.50;;
35644;SDS011;21764;52.042;6.830;2023-04-12T04:31:11;9.45;;;2.00;;
35644;SDS011;21764;52.042;6.830;2023-04-12T04:36:13;12.57;;;2.42;;
35644;SDS011;21764;52.042;6.830;2023-04-12T04:41:14;10.30;;;2.05;;
35644;SDS011;21764;52.042;6.830;2023-04-12T04:46:16;12.27;;;2.28;;
35644;SDS011;21764;52.042;6.830;2023-04-12T04:51:20;11.05;;;2.72;;
35644;SDS011;21764;52.042;6.830;2023-04-12T04:56:20;5.50;;;2.20;;
35644;SDS011;21764;52.042;6.830;2023-04-12T05:01:22;8.73;;;2.63;;
35644;SDS011;21764;52.042;6.830;2023-04-12T05:06:27;10.48;;;2.97;;
35644;SDS011;21764;52.042;6.830;2023-04-12T05:11:27;11.60;;;2.97;;
35644;SDS011;21764;52.042;6.830;2023-04-12T05:16:28;7.38;;;2.17;;
35644;SDS011;21764;52.042;6.830;2023-04-12T05:21:28;6.90;;;2.15;;
35644;SDS011;21764;52.042;6.830;2023-04-12T05:26:30;7.30;;;2.67;;
35644;SDS011;21764;52.042;6.830;2023-04-12T05:31:32;15.35;;;2.90;;
35644;SDS011;21764;52.042;6.830;2023-04-12T05:36:32;9.73;;;3.05;;
35644;SDS011;21764;52.042;6.830;2023-04-12T05:41:33;6.03;;;2.40;;
35644;SDS011;21764;52.042;6.830;2023-04-12T05:46:34;7.40;;;2.35;;
35644;SDS011;21764;52.042;6.830;2023-04-12T05:51:35;5.43;;;2.17;;
35644;SDS011;21764;52.042;6.830;2023-04-12T05:56:35;7.32;;;2.65;;
35644;SDS011;21764;52.042;6.830;2023-04-12T06:01:36;6.97;;;2.53;;
35644;SDS011;21764;52.042;6.830;2023-04-12T06:06:43;12.23;;;2.90;;
35644;SDS011;21764;52.042;6.830;2023-04-12T06:11:44;9.57;;;3.63;;
35644;SDS011;21764;52.042;6.830;2023-04-12T06:16:44;13.20;;;4.10;;
35644;SDS011;21764;52.042;6.830;2023-04-12T06:21:45;8.20;;;3.63;;
35644;SDS011;21764;52.042;6.830;2023-04-12T06:26:46;13.43;;;3.28;;
35644;SDS011;21764;52.042;6.830;2023-04-12T06:31:46;9.18;;;4.20;;
35644;SDS011;21764;52.042;6.830;2023-04-12T06:36:47;12.65;;;4.65;;
35644;SDS011;21764;52.042;6.830;2023-04-12T06:41:48;9.02;;;3.13;;
35644;SDS011;21764;52.042;6.830;2023-04-12T06:46:49;8.80;;;3.75;;
35644;SDS011;21764;52.042;6.830;2023-04-12T06:51:50;11.52;;;4.35;;
35644;SDS011;21764;52.042;6.830;2023-04-12T06:56:51;9.35;;;4.75;;
35644;SDS011;21764;52.042;6.830;2023-04-12T07:01:51;10.85;;;4.90;;
35644;SDS011;21764;52.042;6.830;2023-04-12T07:06:52;12.27;;;5.60;;
35644;SDS011;21764;52.042;6.830;2023-04-12T07:11:52;8.35;;;5.30;;
35644;SDS011;21764;52.042;6.830;2023-04-12T07:16:53;10.65;;;4.97;;
35644;SDS011;21764;52.042;6.830;2023-04-12T07:21:54;13.93;;;5.95;;
35644;SDS011;21764;52.042;6.830;2023-04-12T07:26:55;13.02;;;5.85;;
35644;SDS011;21764;52.042;6.830;2023-04-12T07:31:58;13.45;;;6.70;;
35644;SDS011;21764;52.042;6.830;2023-04-12T07:36:59;16.58;;;6.40;;
35644;SDS011;21764;52.042;6.830;2023-04-12T07:42:00;9.55;;;6.45;;
35644;SDS011;21764;52.042;6.830;2023-04-12T07:47:01;16.05;;;7.57;;
35644;SDS011;21764;52.042;6.830;2023-04-12T07:52:01;12.65;;;7.28;;
35644;SDS011;21764;52.042;6.830;2023-04-12T07:57:02;15.75;;;6.88;;
35644;SDS011;21764;52.042;6.830;2023-04-12T08:02:04;14.88;;;7.03;;
35644;SDS011;21764;52.042;6.830;2023-04-12T08:07:05;13.20;;;6.68;;
35644;SDS011;21764;52.042;6.830;2023-04-12T08:12:06;13.80;;;7.45;;
35644;SDS011;21764;52.042;6.830;2023-04-12T08:17:07;10.65;;;6.68;;
35644;SDS011;21764;52.042;6.830;2023-04-12T08:22:08;10.57;;;6.57;;
35644;SDS011;21764;52.042;6.830;2023-04-12T08:27:08;12.30;;;6.68;;
35644;SDS011;21764;52.042;6.830;2023-04-12T08:32:12;8.18;;;5.80;;
35644;SDS011;21764;52.042;6.830;2023-04-12T08:37:13;11.23;;;6.88;;
35644;SDS011;21764;52.042;6.830;2023-04-12T08:42:14;11.85;;;6.68;;
35644;SDS011;21764;52.042;6.830;2023-04-12T08:47:17;9.48;;;6.32;;
35644;SDS011;21764;52.042;6.830;2023-04-12T08:52:19;12.27;;;6.68;;
35644;SDS011;21764;52.042;6.830;2023-04-12T08:57:20;8.98;;;7.28;;
35644;SDS011;21764;52.042;6.830;2023-04-12T09:02:21;13.65;;;8.02;;
35644;SDS011;21764;52.042;6.830;2023-04-12T09:07:22;20.90;;;10.23;;
35644;SDS011;21764;52.042;6.830;2023-04-12T09:12:26;14.20;;;9.85;;
35644;SDS011;21764;52.042;6.830;2023-04-12T09:17:27;15.00;;;10.00;;
35644;SDS011;21764;52.042;6.830;2023-04-12T09:22:31;16.05;;;11.88;;
35644;SDS011;21764;52.042;6.830;2023-04-12T09:27:46;13.68;;;11.95;;
35644;SDS011;21764;52.042;6.830;2023-04-12T09:32:48;18.67;;;12.90;;
35644;SDS011;21764;52.042;6.830;2023-04-12T09:37:55;19.35;;;15.57;;
35644;SDS011;21764;52.042;6.830;2023-04-12T09:42:57;18.15;;;13.13;;
35644;SDS011;21764;52.042;6.830;2023-04-12T09:47:59;13.45;;;12.05;;
35644;SDS011;21764;52.042;6.830;2023-04-12T09:53:00;16.05;;;12.50;;
35644;SDS011;21764;52.042;6.830;2023-04-12T09:58:02;16.60;;;12.02;;
35644;SDS011;21764;52.042;6.830;2023-04-12T10:03:03;14.55;;;7.78;;
35644;SDS011;21764;52.042;6.830;2023-04-12T10:08:06;13.52;;;4.50;;
35644;SDS011;21764;52.042;6.830;2023-04-12T10:13:06;17.40;;;3.47;;
35644;SDS011;21764;52.042;6.830;2023-04-12T10:18:10;15.77;;;3.88;;
35644;SDS011;21764;52.042;6.830;2023-04-12T10:23:12;18.17;;;4.45;;
35644;SDS011;21764;52.042;6.830;2023-04-12T10:28:14;11.23;;;3.60;;
35644;SDS011;21764;52.042;6.830;2023-04-12T10:33:17;10.70;;;4.00;;
35644;SDS011;21764;52.042;6.830;2023-04-12T10:38:20;11.27;;;4.47;;
35644;SDS011;21764;52.042;6.830;2023-04-12T10:43:24;17.00;;;5.50;;
35644;SDS011;21764;52.042;6.830;2023-04-12T10:48:35;18.17;;;6.35;;
35644;SDS011;21764;52.042;6.830;2023-04-12T10:53:37;12.00;;;4.13;;
35644;SDS011;21764;52.042;6.830;2023-04-12T11:14:34;25.42;;;3.90;;
35644;SDS011;21764;52.042;6.830;2023-04-12T11:19:58;16.85;;;4.15;;
35644;SDS011;21764;52.042;6.830;2023-04-12T11:25:00;13.75;;;3.28;;
35644;SDS011;21764;52.042;6.830;2023-04-12T11:30:02;17.40;;;3.45;;
35644;SDS011;21764;52.042;6.830;2023-04-12T11:35:03;14.63;;;3.45;;
35644;SDS011;21764;52.042;6.830;2023-04-12T11:40:04;17.42;;;3.35;;
35644;SDS011;21764;52.042;6.830;2023-04-12T11:45:05;11.50;;;3.17;;
35644;SDS011;21764;52.042;6.830;2023-04-12T11:50:07;20.27;;;3.30;;
35644;SDS011;21764;52.042;6.830;2023-04-12T11:55:08;10.38;;;2.88;;
35644;SDS011;21764;52.042;6.830;2023-04-12T12:00:10;24.80;;;3.80;;
35644;SDS011;21764;52.042;6.830;2023-04-12T12:05:11;22.90;;;4.47;;
35644;SDS011;21764;52.042;6.830;2023-04-12T12:10:12;21.05;;;4.15;;
35644;SDS011;21764;52.042;6.830;2023-04-12T12:15:13;21.73;;;4.57;;
35644;SDS011;21764;52.042;6.830;2023-04-12T12:20:20;23.45;;;4.00;;
35644;SDS011;21764;52.042;6.830;2023-04-12T12:25:21;17.05;;;3.47;;
35644;SDS011;21764;52.042;6.830;2023-04-12T12:30:22;19.85;;;3.10;;
35644;SDS011;21764;52.042;6.830;2023-04-12T12:35:23;23.25;;;3.90;;
35644;SDS011;21764;52.042;6.830;2023-04-12T12:40:29;21.40;;;3.88;;
35644;SDS011;21764;52.042;6.830;2023-04-12T12:45:31;17.85;;;3.22;;
35644;SDS011;21764;52.042;6.830;2023-04-12T12:50:35;23.63;;;3.63;;
35644;SDS011;21764;52.042;6.830;2023-04-12T12:55:36;25.27;;;4.10;;
35644;SDS011;21764;52.042;6.830;2023-04-12T13:00:36;18.25;;;3.13;;
35644;SDS011;21764;52.042;6.830;2023-04-12T13:05:37;23.05;;;3.95;;
35644;SDS011;21764;52.042;6.830;2023-04-12T13:10:37;25.75;;;4.13;;
35644;SDS011;21764;52.042;6.830;2023-04-12T13:15:38;16.83;;;3.53;;
35644;SDS011;21764;52.042;6.830;2023-04-12T13:20:39;17.75;;;3.47;;
35644;SDS011;21764;52.042;6.830;2023-04-12T13:25:40;24.30;;;4.47;;
35644;SDS011;21764;52.042;6.830;2023-04-12T13:30:41;21.50;;;3.53;;
35644;SDS011;21764;52.042;6.830;2023-04-12T13:35:42;23.95;;;4.90;;
35644;SDS011;21764;52.042;6.830;2023-04-12T13:40:44;31.30;;;4.88;;
35644;SDS011;21764;52.042;6.830;2023-04-12T13:45:44;16.58;;;3.20;;
35644;SDS011;21764;52.042;6.830;2023-04-12T13:50:45;16.08;;;3.65;;
35644;SDS011;21764;52.042;6.830;2023-04-12T13:55:45;13.38;;;3.67;;
35644;SDS011;21764;52.042;6.830;2023-04-12T14:00:48;22.23;;;4.47;;
35644;SDS011;21764;52.042;6.830;2023-04-12T14:05:49;20.00;;;4.05;;
35644;SDS011;21764;52.042;6.830;2023-04-12T14:10:50;19.35;;;4.85;;
35644;SDS011;21764;52.042;6.830;2023-04-12T14:15:51;22.73;;;5.30;;
35644;SDS011;21764;52.042;6.830;2023-04-12T14:20:53;26.35;;;5.10;;
35644;SDS011;21764;52.042;6.830;2023-04-12T14:25:53;26.75;;;5.50;;
35644;SDS011;21764;52.042;6.830;2023-04-12T14:30:54;23.08;;;5.25;;
35644;SDS011;21764;52.042;6.830;2023-04-12T14:35:56;22.17;;;5.97;;
35644;SDS011;21764;52.042;6.830;2023-04-12T14:40:57;26.60;;;7.25;;
35644;SDS011;21764;52.042;6.830;2023-04-12T14:45:57;26.35;;;7.03;;
35644;SDS011;21764;52.042;6.830;2023-04-12T14:50:58;19.75;;;4.45;;
35644;SDS011;21764;52.042;6.830;2023-04-12T14:55:58;16.08;;;3.55;;
35644;SDS011;21764;52.042;6.830;2023-04-12T15:01:01;20.95;;;4.20;;
35644;SDS011;21764;52.042;6.830;2023-04-12T15:06:02;15.70;;;3.50;;
35644;SDS011;21764;52.042;6.830;2023-04-12T15:11:02;21.33;;;4.10;;
35644;SDS011;21764;52.042;6.830;2023-04-12T15:16:04;22.05;;;3.85;;
35644;SDS011;21764;52.042;6.830;2023-04-12T15:21:07;17.48;;;3.65;;
35644;SDS011;21764;52.042;6.830;2023-04-12T15:26:09;17.55;;;4.07;;
35644;SDS011;21764;52.042;6.830;2023-04-12T15:31:10;15.85;;;4.00;;
35644;SDS011;21764;52.042;6.830;2023-04-12T15:36:11;18.50;;;4.18;;
35644;SDS011;21764;52.042;6.830;2023-04-12T15:41:15;16.50;;;4.03;;
35644;SDS011;21764;52.042;6.830;2023-04-12T15:46:16;18.23;;;4.30;;
35644;SDS011;21764;52.042;6.830;2023-04-12T15:51:17;22.52;;;4.47;;
35644;SDS011;21764;52.042;6.830;2023-04-12T15:56:18;24.27;;;4.20;;
35644;SDS011;21764;52.042;6.830;2023-04-12T16:01:23;24.10;;;5.10;;
35644;SDS011;21764;52.042;6.830;2023-04-12T16:06:24;21.00;;;4.38;;
35644;SDS011;21764;52.042;6.830;2023-04-12T16:11:24;17.25;;;3.78;;
35644;SDS011;21764;52.042;6.830;2023-04-12T16:16:25;23.35;;;3.88;;
35644;SDS011;21764;52.042;6.830;2023-04-12T16:21:26;14.90;;;3.90;;
35644;SDS011;21764;52.042;6.830;2023-04-12T16:26:28;9.25;;;2.83;;
35644;SDS011;21764;52.042;6.830;2023-04-12T16:31:29;15.80;;;3.22;;
35644;SDS011;21764;52.042;6.830;2023-04-12T16:36:30;12.50;;;3.60;;
35644;SDS011;21764;52.042;6.830;2023-04-12T16:41:31;13.15;;;2.70;;
35644;SDS011;21764;52.042;6.830;2023-04-12T16:46:32;4.97;;;1.25;;
35644;SDS011;21764;52.042;6.830;2023-04-12T16:51:32;3.42;;;1.38;;
35644;SDS011;21764;52.042;6.830;2023-04-12T16:56:33;2.85;;;1.40;;
35644;SDS011;21764;52.042;6.830;2023-04-12T17:01:34;4.40;;;1.52;;
35644;SDS011;21764;52.042;6.830;2023-04-12T17:06:34;3.25;;;1.48;;
35644;SDS011;21764;52.042;6.830;2023-04-12T17:11:35;1.67;;;1.10;;
35644;SDS011;21764;52.042;6.830;2023-04-12T17:16:36;3.45;;;1.33;;
35644;SDS011;21764;52.042;6.830;2023-04-12T17:21:38;4.25;;;2.50;;
35644;SDS011;21764;52.042;6.830;2023-04-12T17:26:42;4.10;;;1.63;;
35644;SDS011;21764;52.042;6.830;2023-04-12T17:31:43;3.92;;;1.63;;
35644;SDS011;21764;52.042;6.830;2023-04-12T17:36:44;3.28;;;1.83;;
35644;SDS011;21764;52.042;6.830;2023-04-12T17:41:45;4.93;;;1.60;;
35644;SDS011;21764;52.042;6.830;2023-04-12T17:46:46;1.95;;;1.20;;
35644;SDS011;21764;52.042;6.830;2023-04-12T17:51:47;3.50;;;1.00;;
35644;SDS011;21764;52.042;6.830;2023-04-12T17:56:48;2.15;;;1.00;;
35644;SDS011;21764;52.042;6.830;2023-04-12T18:01:49;1.52;;;1.05;;
35644;SDS011;21764;52.042;6.830;2023-04-12T18:06:50;2.35;;;1.00;;
35644;SDS011;21764;52.042;6.830;2023-04-12T18:11:51;2.75;;;1.45;;
35644;SDS011;21764;52.042;6.830;2023-04-12T18:16:52;3.38;;;1.30;;
35644;SDS011;21764;52.042;6.830;2023-04-12T18:21:53;3.30;;;2.05;;
35644;SDS011;21764;52.042;6.830;2023-04-12T18:26:53;5.68;;;2.35;;
35644;SDS011;21764;52.042;6.830;2023-04-12T18:31:55;5.93;;;3.30;;
35644;SDS011;21764;52.042;6.830;2023-04-12T18:36:56;5.38;;;3.03;;
35644;SDS011;21764;52.042;6.830;2023-04-12T18:41:58;7.43;;;3.42;;
35644;SDS011;21764;52.042;6.830;2023-04-12T18:46:58;9.07;;;3.63;;
35644;SDS011;21764;52.042;6.830;2023-04-12T18:51:59;9.98;;;4.25;;
35644;SDS011;21764;52.042;6.830;2023-04-12T18:57:01;6.93;;;3.60;;
35644;SDS011;21764;52.042;6.830;2023-04-12T19:02:02;5.50;;;3.00;;
35644;SDS011;21764;52.042;6.830;2023-04-12T19:07:03;5.38;;;2.80;;
35644;SDS011;21764;52.042;6.830;2023-04-12T19:12:03;7.55;;;3.20;;
35644;SDS011;21764;52.042;6.830;2023-04-12T19:17:04;5.93;;;3.10;;
35644;SDS011;21764;52.042;6.830;2023-04-12T19:22:05;7.60;;;3.30;;
35644;SDS011;21764;52.042;6.830;2023-04-12T19:27:06;5.57;;;3.40;;
35644;SDS011;21764;52.042;6.830;2023-04-12T19:32:06;7.60;;;3.78;;
35644;SDS011;21764;52.042;6.830;2023-04-12T19:37:11;8.37;;;3.10;;
35644;SDS011;21764;52.042;6.830;2023-04-12T19:42:11;6.32;;;3.75;;
35644;SDS011;21764;52.042;6.830;2023-04-12T19:47:14;10.85;;;3.85;;
35644;SDS011;21764;52.042;6.830;2023-04-12T19:52:14;8.20;;;3.60;;
35644;SDS011;21764;52.042;6.830;2023-04-12T19:57:19;4.10;;;3.10;;
35644;SDS011;21764;52.042;6.830;2023-04-12T20:02:19;6.25;;;3.55;;
35644;SDS011;21764;52.042;6.830;2023-04-12T20:07:20;8.38;;;3.60;;
35644;SDS011;21764;52.042;6.830;2023-04-12T20:12:20;7.25;;;4.00;;
35644;SDS011;21764;52.042;6.830;2023-04-12T20:17:21;7.80;;;3.67;;
35644;SDS011;21764;52.042;6.830;2023-04-12T20:22:22;5.70;;;3.83;;
35644;SDS011;21764;52.042;6.830;2023-04-12T20:27:23;9.80;;;4.30;;
35644;SDS011;21764;52.042;6.830;2023-04-12T20:32:24;11.23;;;5.10;;
35644;SDS011;21764;52.042;6.830;2023-04-12T20:37:25;10.05;;;4.53;;
35644;SDS011;21764;52.042;6.830;2023-04-12T20:42:26;12.73;;;4.25;;
35644;SDS011;21764;52.042;6.830;2023-04-12T20:47:26;8.15;;;4.85;;
35644;SDS011;21764;52.042;6.830;2023-04-12T20:52:27;10.02;;;5.63;;
35644;SDS011;21764;52.042;6.830;2023-04-12T20:57:29;11.77;;;5.50;;
35644;SDS011;21764;52.042;6.830;2023-04-12T21:02:32;11.30;;;5.82;;
35644;SDS011;21764;52.042;6.830;2023-04-12T21:07:32;11.45;;;6.30;;
35644;SDS011;21764;52.042;6.830;2023-04-12T21:12:36;15.63;;;6.22;;
35644;SDS011;21764;52.042;6.830;2023-04-12T21:17:38;15.15;;;5.78;;
35644;SDS011;21764;52.042;6.830;2023-04-12T21:22:40;15.20;;;6.80;;
35644;SDS011;21764;52.042;6.830;2023-04-12T21:27:45;14.52;;;6.20;;
35644;SDS011;21764;52.042;6.830;2023-04-12T21:32:46;12.75;;;6.22;;
35644;SDS011;21764;52.042;6.830;2023-04-12T21:37:47;14.07;;;5.63;;
35644;SDS011;21764;52.042;6.830;2023-04-12T21:42:48;9.48;;;4.50;;
35644;SDS011;21764;52.042;6.830;2023-04-12T21:47:49;13.93;;;5.03;;
35644;SDS011;21764;52.042;6.830;2023-04-12T21:52:52;10.57;;;4.38;;
35644;SDS011;21764;52.042;6.830;2023-04-12T21:57:53;7.55;;;4.68;;
35644;SDS011;21764;52.042;6.830;2023-04-12T22:02:54;11.68;;;4.22;;
35644;SDS011;21764;52.042;6.830;2023-04-12T22:07:55;10.20;;;5.13;;
35644;SDS011;21764;52.042;6.830;2023-04-12T22:12:56;9.65;;;4.47;;
35644;SDS011;21764;52.042;6.830;2023-04-12T22:17:57;11.95;;;4.72;;
35644;SDS011;21764;52.042;6.830;2023-04-12T22:22:59;8.48;;;3.72;;
35644;SDS011;21764;52.042;6.830;2023-04-12T22:27:59;7.30;;;3.10;;
35644;SDS011;21764;52.042;6.830;2023-04-12T22:33:00;7.93;;;3.15;;
35644;SDS011;21764;52.042;6.830;2023-04-12T22:38:00;6.70;;;2.53;;
35644;SDS011;21764;52.042;6.830;2023-04-12T22:43:01;7.38;;;2.90;;
35644;SDS011;21764;52.042;6.830;2023-04-12T22:48:02;5.22;;;2.10;;
35644;SDS011;21764;52.042;6.830;2023-04-12T22:53:05;5.22;;;2.60;;
35644;SDS011;21764;52.042;6.830;2023-04-12T22:58:05;5.88;;;2.67;;
35644;SDS011;21764;52.042;6.830;2023-04-12T23:03:07;7.00;;;2.42;;
35644;SDS011;21764;52.042;6.830;2023-04-12T23:08:11;3.25;;;2.38;;
35644;SDS011;21764;52.042;6.830;2023-04-12T23:13:13;4.25;;;2.13;;
35644;SDS011;21764;52.042;6.830;2023-04-12T23:18:14;5.25;;;2.83;;
35644;SDS011;21764;52.042;6.830;2023-04-12T23:23:16;5.13;;;2.58;;
35644;SDS011;21764;52.042;6.830;2023-04-12T23:28:17;8.00;;;2.38;;
35644;SDS011;21764;52.042;6.830;2023-04-12T23:33:18;6.88;;;2.80;;
35644;SDS011;21764;52.042;6.830;2023-04-12T23:38:20;5.30;;;2.17;;
35644;SDS011;21764;52.042;6.830;2023-04-12T23:43:31;5.55;;;2.40;;
35644;SDS011;21764;52.042;6.830;2023-04-12T23:48:34;4.80;;;2.33;;
35644;SDS011;21764;52.042;6.830;2023-04-12T23:53:35;8.18;;;2.38;;
35644;SDS011;21764;52.042;6.830;2023-04-12T23:58:36;10.02;;;2.60;;
